createdAt,value
2023-08-14T00:01:18.967Z,39.45
2023-08-14T00:03:46.222Z,39.55
2023-08-14T00:06:13.490Z,43.55
2023-08-14T00:08:40.761Z,48.22
2023-08-14T00:11:07.983Z,52.70
2023-08-14T00:13:49.301Z,44.78
2023-08-14T00:16:16.589Z,40.17
2023-08-14T00:18:43.897Z,46.22
2023-08-14T00:21:11.177Z,43.53
2023-08-14T00:23:38.466Z,49.17
2023-08-14T00:26:06.045Z,53.65
2023-08-14T00:28:33.537Z,45.55
2023-08-14T00:31:00.816Z,49.90
2023-08-14T00:33:28.027Z,64.88
2023-08-14T00:35:55.224Z,75.22
2023-08-14T00:38:22.469Z,68.78
2023-08-14T00:40:49.752Z,57.53
2023-08-14T00:43:16.946Z,46.30
2023-08-14T00:45:46.428Z,46.33
2023-08-14T00:48:14.758Z,45.42
2023-08-14T00:50:42.067Z,44.65
2023-08-14T00:53:09.318Z,51.47
2023-08-14T00:55:36.510Z,46.47
2023-08-14T00:58:03.736Z,45.85
2023-08-14T01:00:31.052Z,45.45
2023-08-14T01:02:58.423Z,54.00
2023-08-14T01:05:25.672Z,52.22
2023-08-14T01:07:52.957Z,61.20
2023-08-14T01:10:20.165Z,87.95
2023-08-14T01:13:06.138Z,102.45
2023-08-14T01:15:33.327Z,131.02
2023-08-14T01:18:01.639Z,175.63
2023-08-14T01:20:30.438Z,140.52
2023-08-14T01:22:57.664Z,131.27
2023-08-14T01:25:28.269Z,149.25
2023-08-14T01:27:55.673Z,139.85
2023-08-14T01:30:23.586Z,151.02
2023-08-14T01:32:51.486Z,177.20
2023-08-14T01:35:19.328Z,201.68
2023-08-14T01:37:49.139Z,202.45
2023-08-14T01:40:19.439Z,179.43
2023-08-14T01:42:46.648Z,171.00
2023-08-14T01:45:18.686Z,147.88
2023-08-14T01:47:46.264Z,108.38
2023-08-14T01:50:15.048Z,117.38
2023-08-14T01:52:42.245Z,119.68
2023-08-14T01:55:09.550Z,128.05
2023-08-14T01:57:36.751Z,145.80
2023-08-14T02:00:06.512Z,134.52
2023-08-14T02:02:33.862Z,119.63
2023-08-14T02:05:01.148Z,104.45
2023-08-14T02:07:28.433Z,104.25
2023-08-14T02:09:55.744Z,124.53
2023-08-14T02:12:23.010Z,118.55
2023-08-14T02:14:50.277Z,123.03
2023-08-14T02:17:17.509Z,97.22
2023-08-14T02:19:44.708Z,95.38
2023-08-14T02:22:11.921Z,103.95
2023-08-14T02:24:39.172Z,105.05
2023-08-14T02:27:06.403Z,100.70
2023-08-14T02:29:33.591Z,103.15
2023-08-14T02:32:00.844Z,112.13
2023-08-14T02:34:46.841Z,99.15
2023-08-14T02:37:14.203Z,89.05
2023-08-14T02:39:41.555Z,74.20
2023-08-14T02:42:08.827Z,75.43
2023-08-14T02:44:36.305Z,76.07
2023-08-14T02:47:03.659Z,65.82
2023-08-14T02:49:30.860Z,56.58
2023-08-14T02:51:59.486Z,50.58
2023-08-14T02:54:26.834Z,48.47
2023-08-14T02:56:55.171Z,46.58
2023-08-14T02:59:22.687Z,44.58
2023-08-14T03:01:49.935Z,44.40
2023-08-14T03:04:17.410Z,40.40
2023-08-14T03:06:45.204Z,45.72
2023-08-14T03:09:13.288Z,46.70
2023-08-14T03:11:40.610Z,44.60
2023-08-14T03:14:07.856Z,47.63
2023-08-14T03:16:35.127Z,44.00
2023-08-14T03:19:02.413Z,46.55
2023-08-14T03:21:29.721Z,45.60
2023-08-14T03:23:56.948Z,47.60
2023-08-14T03:26:24.221Z,45.90
2023-08-14T03:28:51.490Z,46.08
2023-08-14T03:31:18.731Z,59.13
2023-08-14T03:33:46.020Z,51.83
2023-08-14T03:36:13.246Z,50.35
2023-08-14T03:38:40.443Z,45.80
2023-08-14T03:41:07.687Z,50.45
2023-08-14T03:43:34.935Z,47.10
2023-08-14T03:46:02.193Z,61.53
2023-08-14T03:48:29.461Z,79.45
2023-08-14T03:50:56.694Z,87.25
2023-08-14T03:53:23.975Z,100.82
2023-08-14T03:55:51.329Z,76.03
2023-08-14T03:58:18.796Z,64.47
2023-08-14T04:00:48.237Z,75.90
2023-08-14T04:03:15.734Z,81.68
2023-08-14T04:05:43.065Z,89.82
2023-08-14T04:08:10.323Z,120.72
2023-08-14T04:10:38.311Z,124.63
2023-08-14T04:13:05.692Z,111.82
2023-08-14T04:15:33.090Z,138.50
2023-08-14T04:18:00.881Z,112.28
2023-08-14T04:20:28.254Z,76.85
2023-08-14T04:22:55.537Z,78.15
2023-08-14T04:25:22.829Z,75.90
2023-08-14T04:27:50.065Z,92.95
2023-08-14T04:30:17.268Z,120.13
2023-08-14T04:32:44.831Z,92.53
2023-08-14T04:35:12.139Z,88.28
2023-08-14T04:37:39.402Z,93.25
2023-08-14T04:40:07.000Z,80.18
2023-08-14T04:42:34.833Z,89.55
2023-08-14T04:45:02.140Z,101.32
2023-08-14T04:47:29.430Z,102.20
2023-08-14T04:49:56.864Z,98.50
2023-08-14T04:52:24.164Z,93.75
2023-08-14T04:54:51.420Z,78.35
2023-08-14T04:57:18.683Z,75.07
2023-08-14T04:59:45.953Z,101.93
2023-08-14T05:02:13.219Z,117.40
2023-08-14T05:04:40.557Z,127.57
2023-08-14T05:07:07.805Z,96.35
2023-08-14T05:09:35.038Z,86.35
2023-08-14T05:12:02.385Z,109.13
2023-08-14T05:14:29.677Z,118.15
2023-08-14T05:16:56.950Z,118.78
2023-08-14T05:19:24.204Z,124.15
2023-08-14T05:21:51.461Z,143.60
2023-08-14T05:24:18.690Z,141.10
2023-08-14T05:26:45.990Z,168.23
2023-08-14T05:29:13.230Z,145.95
2023-08-14T05:31:40.494Z,119.72
2023-08-14T05:34:07.780Z,126.75
2023-08-14T05:36:35.144Z,109.20
2023-08-14T05:39:02.364Z,107.13
2023-08-14T05:41:29.613Z,88.70
2023-08-14T05:43:57.096Z,79.30
2023-08-14T05:46:25.461Z,78.93
2023-08-14T05:48:52.911Z,47.17
2023-08-14T05:51:20.164Z,43.38
2023-08-14T05:53:47.415Z,39.60
2023-08-14T05:56:14.746Z,41.05
2023-08-14T05:58:41.957Z,39.63
2023-08-14T06:01:09.195Z,45.45
2023-08-14T06:03:44.074Z,45.35
2023-08-14T06:06:12.558Z,40.67
2023-08-14T06:08:39.958Z,42.30
2023-08-14T06:11:07.172Z,40.80
2023-08-14T06:13:34.432Z,45.17
2023-08-14T06:16:01.703Z,37.33
2023-08-14T06:18:29.476Z,42.60
2023-08-14T06:20:56.944Z,42.35
2023-08-14T06:23:24.204Z,39.88
2023-08-14T06:25:51.486Z,38.95
2023-08-14T06:28:18.705Z,34.08
2023-08-14T06:30:46.037Z,30.67
2023-08-14T06:33:15.246Z,31.88
2023-08-14T06:35:43.062Z,35.63
2023-08-14T06:38:10.380Z,34.63
2023-08-14T06:40:37.633Z,54.60
2023-08-14T06:43:07.525Z,53.42
2023-08-14T06:45:34.961Z,52.47
2023-08-14T06:48:02.221Z,42.85
2023-08-14T06:50:29.671Z,53.35
2023-08-14T06:52:56.945Z,47.60
2023-08-14T06:55:24.181Z,48.22
2023-08-14T06:57:51.613Z,55.67
2023-08-14T07:00:19.151Z,39.83
2023-08-14T07:02:48.508Z,41.40
2023-08-14T07:05:16.729Z,47.85
2023-08-14T07:07:44.037Z,49.40
2023-08-14T07:10:11.356Z,80.78
2023-08-14T07:12:38.628Z,71.45
2023-08-14T07:15:09.936Z,81.45
2023-08-14T07:17:37.363Z,81.32
2023-08-14T07:20:10.723Z,67.32
2023-08-14T07:22:38.256Z,77.25
2023-08-14T07:25:06.356Z,77.05
2023-08-14T07:27:33.551Z,61.90
2023-08-14T07:30:00.798Z,61.65
2023-08-14T07:32:28.178Z,72.70
2023-08-14T07:34:55.524Z,53.53
2023-08-14T07:37:22.765Z,67.38
2023-08-14T07:39:49.966Z,58.25
2023-08-14T07:42:17.401Z,59.75
2023-08-14T07:44:44.796Z,60.95
2023-08-14T07:47:13.545Z,59.85
2023-08-14T07:49:40.763Z,57.78
2023-08-14T07:52:08.016Z,60.58
2023-08-14T07:54:35.217Z,65.75
2023-08-14T07:57:02.429Z,68.78
2023-08-14T07:59:29.649Z,103.80
2023-08-14T08:01:56.919Z,119.47
2023-08-14T08:04:27.172Z,121.80
2023-08-14T08:06:54.591Z,97.03
2023-08-14T08:09:21.896Z,110.65
2023-08-14T08:11:50.313Z,102.13
2023-08-14T08:14:17.675Z,91.82
2023-08-14T08:16:45.894Z,119.10
2023-08-14T08:19:13.337Z,138.52
2023-08-14T08:21:40.885Z,106.03
2023-08-14T08:24:08.369Z,91.32
2023-08-14T08:26:35.949Z,114.03
2023-08-14T08:29:03.587Z,107.68
2023-08-14T08:31:30.876Z,107.80
2023-08-14T08:33:58.154Z,112.53
2023-08-14T08:36:25.438Z,107.03
2023-08-14T08:38:52.643Z,113.13
2023-08-14T08:41:23.493Z,108.70
2023-08-14T08:44:11.069Z,106.43
2023-08-14T08:46:38.843Z,112.80
2023-08-14T08:49:06.119Z,128.80
2023-08-14T08:51:33.437Z,121.70
2023-08-14T08:54:01.296Z,115.95
2023-08-14T08:56:28.609Z,128.55
2023-08-14T08:58:55.875Z,126.72
2023-08-14T09:01:23.120Z,145.30
2023-08-14T09:03:50.481Z,135.40
2023-08-14T09:06:17.862Z,157.77
2023-08-14T09:08:45.063Z,147.90
2023-08-14T09:11:12.263Z,111.47
2023-08-14T09:13:39.510Z,145.50
2023-08-14T09:16:06.729Z,134.45
2023-08-14T09:18:33.938Z,132.93
2023-08-14T09:21:01.171Z,115.95
2023-08-14T09:23:28.406Z,136.63
2023-08-14T09:25:56.382Z,134.90
2023-08-14T09:28:24.857Z,132.52
2023-08-14T09:30:52.070Z,136.95
2023-08-14T09:33:20.625Z,138.73
2023-08-14T09:35:53.505Z,216.00
2023-08-14T09:38:20.778Z,218.30
2023-08-14T09:40:47.990Z,159.40
2023-08-14T09:43:15.318Z,188.50
2023-08-14T09:45:42.511Z,169.77
2023-08-14T09:48:09.972Z,148.70
2023-08-14T09:50:37.503Z,136.02
2023-08-14T09:53:04.801Z,243.70
2023-08-14T09:55:32.036Z,117.38
2023-08-14T09:57:59.470Z,117.65
2023-08-14T10:00:29.332Z,134.80
2023-08-14T10:02:56.694Z,144.80
2023-08-14T10:05:24.090Z,98.20
2023-08-14T10:07:51.370Z,140.65
2023-08-14T10:10:18.580Z,109.55
2023-08-14T10:12:47.951Z,88.90
2023-08-14T10:15:16.434Z,204.60
2023-08-14T10:17:48.880Z,133.32
2023-08-14T10:20:17.148Z,170.68
2023-08-14T10:22:44.404Z,111.82
2023-08-14T10:25:12.022Z,129.23
2023-08-14T10:27:39.254Z,123.60
2023-08-14T10:30:06.776Z,151.93
2023-08-14T10:32:34.473Z,98.22
2023-08-14T10:35:01.761Z,165.13
2023-08-14T10:37:29.599Z,161.18
2023-08-14T10:40:14.703Z,84.22
2023-08-14T10:43:02.181Z,97.95
2023-08-14T10:45:29.879Z,255.77
2023-08-14T10:48:01.147Z,127.05
2023-08-14T10:50:30.009Z,125.45
2023-08-14T10:52:57.850Z,166.13
2023-08-14T10:55:26.442Z,159.10
2023-08-14T10:57:55.798Z,122.10
2023-08-14T11:00:23.826Z,110.55
2023-08-14T11:02:52.396Z,105.35
2023-08-14T11:05:22.470Z,117.95
2023-08-14T11:07:58.869Z,126.25
2023-08-14T11:10:26.876Z,97.75
2023-08-14T11:12:54.689Z,123.65
2023-08-14T11:15:22.341Z,102.93
2023-08-14T11:17:49.911Z,111.18
2023-08-14T11:20:17.298Z,115.32
2023-08-14T11:22:45.193Z,87.07
2023-08-14T11:25:17.585Z,137.15
2023-08-14T11:27:51.779Z,137.13
2023-08-14T11:30:25.870Z,132.57
2023-08-14T11:32:54.175Z,98.50
2023-08-14T11:37:53.638Z,96.72
2023-08-14T11:40:20.890Z,81.82
2023-08-14T11:42:48.141Z,85.07
2023-08-14T11:45:15.374Z,110.85
2023-08-14T11:47:48.708Z,99.30
2023-08-14T11:50:16.589Z,88.40
2023-08-14T11:52:43.908Z,99.82
2023-08-14T11:55:11.234Z,102.45
2023-08-14T11:57:38.649Z,135.35
2023-08-14T12:00:11.757Z,87.47
2023-08-14T12:02:42.395Z,90.40
2023-08-14T12:05:09.788Z,85.78
2023-08-14T12:07:37.280Z,124.05
2023-08-14T12:10:08.673Z,129.73
2023-08-14T12:12:36.621Z,145.38
2023-08-14T12:15:06.588Z,127.97
2023-08-14T12:17:34.769Z,206.45
2023-08-14T12:20:05.678Z,107.82
2023-08-14T12:22:33.074Z,121.68
2023-08-14T12:25:00.279Z,108.70
2023-08-14T12:27:30.593Z,127.18
2023-08-14T12:29:57.999Z,106.10
2023-08-14T12:32:25.479Z,142.43
2023-08-14T12:34:53.039Z,120.10
2023-08-14T12:37:20.565Z,101.35
2023-08-14T12:39:53.935Z,147.13
2023-08-14T12:42:21.398Z,196.00
2023-08-14T12:44:48.609Z,150.48
2023-08-14T12:47:15.950Z,105.55
2023-08-14T12:49:43.241Z,153.35
2023-08-14T12:52:11.285Z,142.57
2023-08-14T12:54:40.031Z,180.68
2023-08-14T12:57:07.773Z,130.05
2023-08-14T12:59:35.116Z,117.45
2023-08-14T13:02:02.339Z,172.85
2023-08-14T13:04:29.873Z,177.95
2023-08-14T13:06:57.203Z,170.55
2023-08-14T13:09:24.430Z,176.93
2023-08-14T13:11:51.691Z,197.20
2023-08-14T13:14:18.893Z,193.38
2023-08-14T13:16:46.125Z,168.30
2023-08-14T13:19:13.626Z,191.65
2023-08-14T13:21:40.838Z,242.95
2023-08-14T13:24:08.286Z,218.95
2023-08-14T13:26:38.343Z,191.25
2023-08-14T13:29:06.456Z,185.27
2023-08-14T13:31:33.688Z,175.02
2023-08-14T13:34:00.926Z,175.55
2023-08-14T13:36:28.143Z,175.93
2023-08-14T13:38:55.341Z,200.13
2023-08-14T13:41:22.603Z,166.82
2023-08-14T13:43:49.809Z,170.40
2023-08-14T13:46:17.012Z,169.63
2023-08-14T13:48:45.756Z,175.00
2023-08-14T13:51:13.123Z,141.00
2023-08-14T13:53:40.349Z,182.65
2023-08-14T13:56:07.599Z,189.07
2023-08-14T13:58:34.795Z,207.07
2023-08-14T14:01:03.197Z,198.48
2023-08-14T14:03:31.288Z,228.05
2023-08-14T14:05:58.698Z,183.38
2023-08-14T14:08:25.988Z,220.18
2023-08-14T14:10:53.209Z,226.48
2023-08-14T14:13:20.478Z,184.45
2023-08-14T14:15:47.819Z,160.75
2023-08-14T14:18:16.420Z,163.25
2023-08-14T14:20:43.675Z,165.45
2023-08-14T14:23:10.914Z,195.30
2023-08-14T14:25:38.163Z,182.70
2023-08-14T14:28:05.767Z,199.95
2023-08-14T14:30:32.952Z,210.73
2023-08-14T14:33:02.073Z,198.85
2023-08-14T14:35:29.342Z,193.70
2023-08-14T14:37:56.555Z,227.43
2023-08-14T14:40:26.342Z,221.40
2023-08-14T14:42:54.900Z,191.25
2023-08-14T14:45:33.097Z,171.15
2023-08-14T14:48:01.208Z,162.50
2023-08-14T14:50:30.219Z,218.85
2023-08-14T14:52:58.014Z,185.25
2023-08-14T14:55:26.716Z,170.68
2023-08-14T14:57:53.921Z,159.82
2023-08-14T15:00:21.247Z,139.10
2023-08-14T15:02:48.531Z,155.20
2023-08-14T15:05:27.598Z,146.05
2023-08-14T15:07:56.275Z,137.45
2023-08-14T15:10:23.473Z,125.25
2023-08-14T15:12:50.709Z,154.40
2023-08-14T15:15:17.942Z,99.65
2023-08-14T15:17:45.555Z,98.57
2023-08-14T15:20:13.885Z,102.82
2023-08-14T15:22:44.264Z,100.78
2023-08-14T15:25:13.178Z,110.13
2023-08-14T15:27:40.448Z,97.70
2023-08-14T15:30:07.996Z,93.93
2023-08-14T15:32:35.930Z,83.05
2023-08-14T15:35:03.852Z,87.13
2023-08-14T15:37:31.081Z,88.93
2023-08-14T15:39:58.288Z,85.88
2023-08-14T15:42:25.497Z,89.40
2023-08-14T15:44:55.877Z,95.18
2023-08-14T15:47:23.486Z,84.28
2023-08-14T15:49:50.783Z,97.40
2023-08-14T15:52:18.297Z,99.32
2023-08-14T15:54:53.098Z,104.63
2023-08-14T15:57:21.550Z,105.65
2023-08-14T15:59:49.114Z,111.72
2023-08-14T16:02:19.222Z,112.35
2023-08-14T16:04:46.685Z,121.88
2023-08-14T16:07:13.881Z,120.35
2023-08-14T16:09:41.287Z,118.95
2023-08-14T16:12:08.659Z,115.75
2023-08-14T16:14:35.861Z,110.63
2023-08-14T16:17:03.159Z,127.28
2023-08-14T16:19:30.963Z,117.20
2023-08-14T16:21:58.161Z,129.18
2023-08-14T16:24:25.489Z,106.75
2023-08-14T16:26:52.722Z,98.47
2023-08-14T16:29:20.084Z,95.32
2023-08-14T16:31:47.286Z,101.97
2023-08-14T16:34:14.519Z,116.90
2023-08-14T16:36:41.779Z,102.53
2023-08-14T16:39:09.978Z,118.55
2023-08-14T16:41:38.263Z,123.65
2023-08-14T16:44:05.703Z,137.38
2023-08-14T16:46:32.967Z,147.25
2023-08-14T16:49:02.417Z,146.98
2023-08-14T16:51:30.645Z,158.07
2023-08-14T16:53:57.872Z,166.23
2023-08-14T16:56:25.095Z,160.65
2023-08-14T16:58:52.334Z,161.48
2023-08-14T17:01:19.784Z,174.95
2023-08-14T17:03:47.115Z,171.68
2023-08-14T17:06:14.408Z,187.77
2023-08-14T17:08:41.619Z,192.43
2023-08-14T17:11:08.888Z,197.57
2023-08-14T17:13:36.086Z,188.10
2023-08-14T17:16:04.192Z,196.82
2023-08-14T17:18:31.449Z,198.70
2023-08-14T17:20:58.764Z,208.23
2023-08-14T17:23:26.025Z,202.50
2023-08-14T17:25:56.072Z,204.75
2023-08-14T17:28:24.501Z,195.48
2023-08-14T17:30:58.157Z,193.55
2023-08-14T17:33:25.634Z,185.23
2023-08-14T17:35:53.024Z,174.98
2023-08-14T17:38:20.357Z,156.93
2023-08-14T17:40:53.352Z,168.00
2023-08-14T17:43:20.716Z,144.10
2023-08-14T17:45:50.120Z,150.02
2023-08-14T17:48:17.463Z,150.75
2023-08-14T17:50:44.816Z,153.05
2023-08-14T17:53:12.062Z,141.07
2023-08-14T17:55:39.596Z,149.13
2023-08-14T17:58:06.842Z,138.35
2023-08-14T18:00:34.221Z,141.50
2023-08-14T18:03:01.517Z,140.88
2023-08-14T18:05:28.785Z,143.73
2023-08-14T18:07:55.975Z,139.35
2023-08-14T18:10:23.217Z,136.50
2023-08-14T18:12:50.435Z,142.85
2023-08-14T18:15:18.905Z,132.02
2023-08-14T18:17:46.155Z,127.53
2023-08-14T18:20:13.516Z,138.25
2023-08-14T18:22:40.734Z,135.10
2023-08-14T18:25:08.091Z,116.03
2023-08-14T18:27:35.770Z,145.13
2023-08-14T18:30:02.990Z,136.55
2023-08-14T18:32:30.220Z,135.40
2023-08-14T18:34:57.588Z,138.00
2023-08-14T18:37:25.031Z,111.97
2023-08-14T18:39:52.391Z,125.47
2023-08-14T18:42:19.619Z,116.63
2023-08-14T18:44:46.835Z,127.78
2023-08-14T18:47:14.035Z,118.55
2023-08-14T18:49:45.805Z,115.95
2023-08-14T18:52:16.135Z,147.93
2023-08-14T18:54:43.506Z,117.47
2023-08-14T18:57:11.839Z,109.72
2023-08-14T18:59:41.658Z,105.57
2023-08-14T19:02:08.855Z,119.25
2023-08-14T19:04:42.232Z,123.82
2023-08-14T19:07:10.638Z,126.03
2023-08-14T19:09:38.012Z,129.57
2023-08-14T19:12:06.052Z,114.60
2023-08-14T19:14:33.400Z,102.78
2023-08-14T19:17:00.693Z,110.50
2023-08-14T19:19:27.977Z,107.45
2023-08-14T19:21:55.288Z,102.13
2023-08-14T19:24:22.618Z,94.47
2023-08-14T19:26:49.825Z,85.72
2023-08-14T19:29:17.022Z,86.97
2023-08-14T19:31:44.260Z,75.70
2023-08-14T19:34:11.457Z,68.82
2023-08-14T19:36:38.696Z,63.25
2023-08-14T19:39:06.676Z,68.40
2023-08-14T19:41:33.902Z,52.10
2023-08-14T19:44:04.966Z,44.97
2023-08-14T19:46:32.443Z,48.25
2023-08-14T19:48:59.781Z,52.25
2023-08-14T19:51:26.999Z,53.28
2023-08-14T19:53:54.460Z,52.97
2023-08-14T19:56:21.683Z,55.60
2023-08-14T19:58:48.900Z,51.65
2023-08-14T20:01:16.208Z,51.20
2023-08-14T20:03:44.567Z,54.80
2023-08-14T20:06:12.468Z,49.13
2023-08-14T20:08:39.826Z,56.15
2023-08-14T20:11:07.281Z,55.40
2023-08-14T20:13:34.585Z,57.35
2023-08-14T20:16:01.930Z,56.03
2023-08-14T20:18:30.407Z,56.50
2023-08-14T20:20:57.873Z,60.85
2023-08-14T20:23:25.152Z,56.72
2023-08-14T20:25:52.692Z,64.15
2023-08-14T20:28:19.930Z,66.65
2023-08-14T20:30:47.326Z,62.60
2023-08-14T20:33:15.714Z,61.95
2023-08-14T20:35:43.239Z,73.82
2023-08-14T20:38:10.598Z,77.05
2023-08-14T20:40:37.908Z,78.05
2023-08-14T20:43:12.076Z,79.45
2023-08-14T20:45:39.704Z,83.80
2023-08-14T20:48:07.498Z,81.45
2023-08-14T20:50:34.824Z,79.90
2023-08-14T20:53:02.064Z,76.75
2023-08-14T20:55:29.381Z,82.72
2023-08-14T20:57:56.674Z,79.60
2023-08-14T21:00:23.964Z,78.60
2023-08-14T21:02:51.774Z,78.22
2023-08-14T21:05:19.352Z,84.40
2023-08-14T21:07:46.542Z,77.97
2023-08-14T21:10:13.744Z,81.72
2023-08-14T21:12:41.000Z,81.68
2023-08-14T21:15:08.392Z,78.13
2023-08-14T21:17:35.855Z,77.45
2023-08-14T21:20:03.873Z,72.68
2023-08-14T21:22:31.068Z,73.85
2023-08-14T21:24:58.335Z,77.10
2023-08-14T21:27:25.581Z,69.80
2023-08-14T21:29:56.481Z,74.72
2023-08-14T21:32:23.718Z,70.32
2023-08-14T21:34:50.941Z,64.65
2023-08-14T21:37:18.368Z,60.35
2023-08-14T21:39:45.785Z,65.22
2023-08-14T21:42:13.017Z,65.18
2023-08-14T21:44:40.285Z,57.17
2023-08-14T21:47:07.564Z,61.92
2023-08-14T21:49:35.697Z,61.30
2023-08-14T21:52:02.934Z,59.30
2023-08-14T21:54:31.798Z,64.38
2023-08-14T21:57:00.215Z,58.67
2023-08-14T21:59:27.461Z,64.28
2023-08-14T22:01:55.112Z,56.55
2023-08-14T22:04:22.812Z,54.55
2023-08-14T22:06:50.044Z,55.35
2023-08-14T22:09:17.441Z,52.15
2023-08-14T22:11:44.857Z,57.20
2023-08-14T22:14:12.069Z,53.75
2023-08-14T22:16:39.402Z,53.47
2023-08-14T22:19:06.717Z,55.72
2023-08-14T22:21:33.999Z,56.20
2023-08-14T22:24:01.241Z,51.63
2023-08-14T22:26:28.462Z,52.30
2023-08-14T22:28:55.708Z,54.28
2023-08-14T22:31:23.286Z,49.42
2023-08-14T22:33:50.526Z,49.42
2023-08-14T22:36:17.798Z,49.05
2023-08-14T22:38:45.039Z,48.30
2023-08-14T22:41:12.271Z,51.75
2023-08-14T22:43:39.713Z,52.15
2023-08-14T22:46:06.923Z,46.28
2023-08-14T22:48:34.289Z,47.72
2023-08-14T22:51:01.680Z,48.33
2023-08-14T22:53:28.974Z,50.28
2023-08-14T22:55:56.263Z,52.78
2023-08-14T22:58:23.482Z,51.45
2023-08-14T23:00:50.751Z,46.90
2023-08-14T23:03:17.993Z,48.35
2023-08-14T23:05:45.266Z,46.42
2023-08-14T23:08:12.477Z,46.88
2023-08-14T23:10:39.773Z,50.80
2023-08-14T23:13:07.028Z,47.28
2023-08-14T23:15:34.397Z,47.47
2023-08-14T23:18:01.705Z,47.30
2023-08-14T23:20:28.964Z,46.20
2023-08-14T23:22:56.186Z,46.03
2023-08-14T23:25:23.454Z,45.05
2023-08-14T23:27:50.658Z,44.80
2023-08-14T23:30:17.920Z,46.67
2023-08-14T23:32:45.146Z,46.63
2023-08-14T23:35:12.357Z,48.15
2023-08-14T23:37:39.901Z,48.33
2023-08-14T23:40:07.430Z,45.90
2023-08-14T23:42:34.621Z,47.30
2023-08-14T23:45:01.822Z,45.83
2023-08-14T23:47:29.180Z,45.38
2023-08-14T23:49:56.403Z,50.72
2023-08-14T23:52:23.657Z,53.22
2023-08-14T23:54:50.915Z,56.00
2023-08-14T23:57:18.209Z,54.92
2023-08-14T23:59:45.513Z,46.70
